createdAt,value
2023-03-27T00:01:15.934Z,73.67
2023-03-27T00:03:44.851Z,74.29
2023-03-27T00:06:16.716Z,74.27
2023-03-27T00:08:48.898Z,74.10
2023-03-27T00:11:16.953Z,73.91
2023-03-27T00:16:37.291Z,74.42
2023-03-27T00:19:04.357Z,74.41
2023-03-27T00:21:35.271Z,74.52
2023-03-27T00:24:02.283Z,73.96
2023-03-27T00:26:30.630Z,74.94
2023-03-27T00:28:58.286Z,75.44
2023-03-27T00:31:26.415Z,74.83
2023-03-27T00:33:54.264Z,74.58
2023-03-27T00:36:22.258Z,75.20
2023-03-27T00:38:53.030Z,73.88
2023-03-27T00:41:27.540Z,74.48
2023-03-27T00:43:56.356Z,75.33
2023-03-27T00:46:31.528Z,75.67
2023-03-27T00:49:03.865Z,73.93
2023-03-27T00:51:33.023Z,75.51
2023-03-27T00:54:34.601Z,73.72
2023-03-27T00:57:07.163Z,74.37
2023-03-27T00:59:43.579Z,75.90
2023-03-27T01:02:13.430Z,75.56
2023-03-27T01:04:47.828Z,74.73
2023-03-27T01:07:22.327Z,75.97
2023-03-27T01:10:16.712Z,76.00
2023-03-27T01:13:13.895Z,76.08
2023-03-27T01:16:13.836Z,76.12
2023-03-27T01:19:36.418Z,76.09
2023-03-27T01:22:12.116Z,75.91
2023-03-27T01:24:55.545Z,76.37
2023-03-27T01:27:52.241Z,76.03
2023-03-27T01:30:24.234Z,76.56
2023-03-27T01:33:34.415Z,76.50
2023-03-27T01:36:18.698Z,76.75
2023-03-27T01:39:50.475Z,76.75
2023-03-27T01:42:21.156Z,76.65
2023-03-27T01:45:05.202Z,76.75
2023-03-27T01:47:50.451Z,76.99
2023-03-27T01:50:30.557Z,76.54
2023-03-27T01:53:13.819Z,76.79
2023-03-27T01:55:49.132Z,76.57
2023-03-27T01:58:24.379Z,76.83
2023-03-27T02:01:01.441Z,77.15
2023-03-27T02:03:36.919Z,77.09
2023-03-27T02:06:34.558Z,77.10
2023-03-27T02:09:24.650Z,77.29
2023-03-27T02:12:01.498Z,77.15
2023-03-27T02:17:29.193Z,77.21
2023-03-27T02:20:14.803Z,77.20
2023-03-27T02:25:40.800Z,77.19
2023-03-27T02:28:34.675Z,77.84
2023-03-27T02:31:33.919Z,77.29
2023-03-27T02:40:31.446Z,77.86
2023-03-27T02:47:09.111Z,77.63
2023-03-27T02:49:51.200Z,78.21
2023-03-27T02:52:36.062Z,78.08
2023-03-27T02:55:16.260Z,78.29
2023-03-27T02:57:52.429Z,78.46
2023-03-27T03:00:42.009Z,78.41
2023-03-27T03:03:41.755Z,78.44
2023-03-27T03:06:29.900Z,78.22
2023-03-27T03:09:04.662Z,78.59
2023-03-27T03:11:46.133Z,78.54
2023-03-27T03:14:40.996Z,78.56
2023-03-27T03:17:11.890Z,78.62
2023-03-27T03:19:45.953Z,78.37
2023-03-27T03:22:14.750Z,78.47
2023-03-27T03:24:43.651Z,78.64
2023-03-27T03:27:14.674Z,78.99
2023-03-27T03:29:56.878Z,78.62
2023-03-27T03:32:28.340Z,79.08
2023-03-27T03:34:57.135Z,78.92
2023-03-27T03:37:28.516Z,78.98
2023-03-27T03:39:56.565Z,78.96
2023-03-27T03:42:24.536Z,79.17
2023-03-27T03:44:54.414Z,79.06
2023-03-27T03:47:24.386Z,79.01
2023-03-27T03:49:52.294Z,79.41
2023-03-27T03:52:20.992Z,79.38
2023-03-27T03:54:48.289Z,79.40
2023-03-27T03:57:17.123Z,79.43
2023-03-27T04:00:03.428Z,79.20
2023-03-27T04:02:58.911Z,79.35
2023-03-27T04:05:35.417Z,79.41
2023-03-27T04:08:02.886Z,79.20
2023-03-27T04:10:41.617Z,79.63
2023-03-27T04:13:24.819Z,79.59
2023-03-27T04:16:01.720Z,79.57
2023-03-27T04:18:39.410Z,79.86
2023-03-27T04:21:17.823Z,80.15
2023-03-27T04:23:48.180Z,80.15
2023-03-27T04:33:07.625Z,80.38
2023-03-27T04:39:03.633Z,80.05
2023-03-27T04:42:04.361Z,80.11
2023-03-27T04:44:32.624Z,80.07
2023-03-27T04:47:02.238Z,80.30
2023-03-27T04:49:38.596Z,80.43
2023-03-27T04:52:17.954Z,80.23
2023-03-27T04:58:34.560Z,80.33
2023-03-27T05:04:20.290Z,80.53
2023-03-27T05:07:17.366Z,80.72
2023-03-27T05:09:45.736Z,80.53
2023-03-27T05:12:14.449Z,80.83
2023-03-27T05:14:50.301Z,80.87
2023-03-27T05:17:41.938Z,81.49
2023-03-27T05:23:10.834Z,80.90
2023-03-27T05:25:45.425Z,80.99
2023-03-27T05:28:34.314Z,81.29
2023-03-27T05:31:02.403Z,81.28
2023-03-27T05:33:36.290Z,82.46
2023-03-27T05:36:05.978Z,81.95
2023-03-27T05:38:36.330Z,81.92
2023-03-27T05:41:10.757Z,81.47
2023-03-27T05:43:42.579Z,81.52
2023-03-27T05:46:10.341Z,82.33
2023-03-27T05:48:38.614Z,82.03
2023-03-27T05:51:07.090Z,82.54
2023-03-27T05:53:36.271Z,81.57
2023-03-27T05:56:28.861Z,82.33
2023-03-27T05:59:00.537Z,82.79
2023-03-27T06:01:30.365Z,82.33
2023-03-27T06:04:09.654Z,82.41
2023-03-27T06:06:55.373Z,81.89
2023-03-27T06:09:25.301Z,82.02
2023-03-27T06:12:20.690Z,82.44
2023-03-27T06:18:06.850Z,82.27
2023-03-27T06:20:38.992Z,82.42
2023-03-27T06:23:09.407Z,82.67
2023-03-27T06:25:39.398Z,82.06
2023-03-27T06:28:15.033Z,82.31
2023-03-27T06:30:50.596Z,82.24
2023-03-27T06:36:44.465Z,83.16
2023-03-27T06:39:12.467Z,83.31
2023-03-27T06:41:48.651Z,82.83
2023-03-27T06:44:18.296Z,83.31
2023-03-27T06:47:00.680Z,82.91
2023-03-27T06:49:36.461Z,83.32
2023-03-27T06:52:17.298Z,82.66
2023-03-27T06:54:46.279Z,82.69
2023-03-27T06:57:46.731Z,83.50
2023-03-27T07:00:22.703Z,83.79
2023-03-27T07:03:15.081Z,83.72
2023-03-27T07:06:02.415Z,83.13
2023-03-27T07:08:56.390Z,83.44
2023-03-27T07:11:25.348Z,83.07
2023-03-27T07:13:58.324Z,83.72
2023-03-27T07:16:28.379Z,84.00
2023-03-27T07:19:20.410Z,83.21
2023-03-27T07:22:00.488Z,83.23
2023-03-27T07:24:28.268Z,83.73
2023-03-27T07:26:56.339Z,82.74
2023-03-27T07:30:01.401Z,81.93
2023-03-27T07:32:37.311Z,81.11
2023-03-27T07:35:06.617Z,81.99
2023-03-27T07:38:01.850Z,82.37
2023-03-27T07:40:39.918Z,80.04
2023-03-27T07:43:42.294Z,79.52
2023-03-27T07:46:39.345Z,78.74
2023-03-27T07:49:09.376Z,78.10
2023-03-27T07:51:36.735Z,79.48
2023-03-27T07:54:09.692Z,77.62
2023-03-27T07:56:45.842Z,77.27
2023-03-27T07:59:34.409Z,76.62
2023-03-27T08:02:33.339Z,76.20
2023-03-27T08:05:05.282Z,75.54
2023-03-27T08:07:40.570Z,75.74
2023-03-27T08:10:09.267Z,72.77
2023-03-27T08:12:48.376Z,73.36
2023-03-27T08:15:21.368Z,73.30
2023-03-27T08:17:58.774Z,74.01
2023-03-27T08:20:35.622Z,73.16
2023-03-27T08:23:08.858Z,72.35
2023-03-27T08:26:00.458Z,69.24
2023-03-27T08:28:34.544Z,71.83
2023-03-27T08:31:10.373Z,72.23
2023-03-27T08:33:39.436Z,70.64
2023-03-27T08:36:18.820Z,68.41
2023-03-27T08:38:55.049Z,71.26
2023-03-27T08:41:38.675Z,68.87
2023-03-27T08:44:23.319Z,66.95
2023-03-27T08:46:59.627Z,68.28
2023-03-27T08:49:34.733Z,68.20
2023-03-27T08:52:32.018Z,66.91
2023-03-27T08:55:42.506Z,66.84
2023-03-27T08:58:28.337Z,67.16
2023-03-27T09:01:22.090Z,67.35
2023-03-27T09:04:09.212Z,67.80
2023-03-27T09:10:31.597Z,68.62
2023-03-27T09:13:18.651Z,66.04
2023-03-27T09:15:59.702Z,65.44
2023-03-27T09:18:49.401Z,66.29
2023-03-27T09:21:29.083Z,62.26
2023-03-27T09:24:06.250Z,64.46
2023-03-27T09:27:18.282Z,65.20
2023-03-27T09:30:14.873Z,66.28
2023-03-27T09:32:51.605Z,65.57
2023-03-27T09:35:26.464Z,60.94
2023-03-27T09:38:04.592Z,62.64
2023-03-27T09:40:45.729Z,61.92
2023-03-27T09:43:40.508Z,63.15
2023-03-27T09:46:36.019Z,63.47
2023-03-27T09:49:24.204Z,64.72
2023-03-27T09:52:23.980Z,63.92
2023-03-27T09:55:34.988Z,63.98
2023-03-27T09:58:20.505Z,61.75
2023-03-27T10:01:06.929Z,63.10
2023-03-27T10:03:54.362Z,61.12
2023-03-27T10:06:43.217Z,62.64
2023-03-27T10:09:24.926Z,60.13
2023-03-27T10:12:04.588Z,60.44
2023-03-27T10:14:36.094Z,61.02
2023-03-27T10:17:10.138Z,63.20
2023-03-27T10:19:41.388Z,58.97
2023-03-27T10:22:30.920Z,57.64
2023-03-27T10:25:00.698Z,60.48
2023-03-27T10:28:11.585Z,60.65
2023-03-27T10:31:04.239Z,61.69
2023-03-27T10:33:45.426Z,61.11
2023-03-27T10:36:21.374Z,61.05
2023-03-27T10:39:00.925Z,63.00
2023-03-27T10:41:47.835Z,67.93
2023-03-27T10:44:20.176Z,67.63
2023-03-27T10:50:03.914Z,68.72
2023-03-27T10:53:04.524Z,71.10
2023-03-27T10:56:11.116Z,72.29
2023-03-27T10:58:52.068Z,72.42
2023-03-27T11:01:34.661Z,73.72
2023-03-27T11:04:19.715Z,74.13
2023-03-27T11:07:03.310Z,74.23
2023-03-27T11:09:36.401Z,76.40
2023-03-27T11:12:23.777Z,75.33
2023-03-27T11:15:07.331Z,76.14
2023-03-27T11:17:53.231Z,76.09
2023-03-27T11:21:04.573Z,76.39
2023-03-27T11:24:00.101Z,75.42
2023-03-27T11:26:47.689Z,76.00
2023-03-27T11:32:33.698Z,75.98
2023-03-27T11:35:10.470Z,74.55
2023-03-27T11:38:14.967Z,77.99
2023-03-27T11:40:45.602Z,76.13
2023-03-27T11:43:14.543Z,75.99
2023-03-27T11:45:48.087Z,75.66
2023-03-27T11:54:31.093Z,75.28
2023-03-27T11:57:11.802Z,75.77
2023-03-27T11:59:53.630Z,75.17
2023-03-27T12:02:50.478Z,75.88
2023-03-27T12:05:43.100Z,76.53
2023-03-27T12:08:15.968Z,77.37
2023-03-27T12:10:50.061Z,77.23
2023-03-27T12:13:28.766Z,79.16
2023-03-27T12:16:33.450Z,79.65
2023-03-27T12:19:38.194Z,79.58
2023-03-27T12:23:15.871Z,79.63
2023-03-27T12:26:31.129Z,78.30
2023-03-27T12:29:24.464Z,78.52
2023-03-27T12:32:22.394Z,78.33
2023-03-27T12:35:03.501Z,78.83
2023-03-27T12:37:48.612Z,77.16
2023-03-27T12:40:37.565Z,76.41
2023-03-27T12:43:20.795Z,76.72
2023-03-27T12:46:12.542Z,76.20
2023-03-27T12:48:54.351Z,76.39
2023-03-27T12:51:44.277Z,76.92
2023-03-27T12:54:18.980Z,77.32
2023-03-27T12:57:08.242Z,76.29
2023-03-27T12:59:45.860Z,78.62
2023-03-27T13:02:56.346Z,75.87
2023-03-27T13:06:14.276Z,73.51
2023-03-27T13:09:06.146Z,73.97
2023-03-27T13:11:59.193Z,71.94
2023-03-27T13:14:46.772Z,72.32
2023-03-27T13:17:35.514Z,70.87
2023-03-27T13:20:25.686Z,69.48
2023-03-27T13:23:13.170Z,68.82
2023-03-27T13:26:14.065Z,69.19
2023-03-27T13:28:53.010Z,68.49
2023-03-27T13:31:49.607Z,69.48
2023-03-27T13:34:41.713Z,71.02
2023-03-27T13:37:36.739Z,70.24
2023-03-27T13:40:31.010Z,70.08
2023-03-27T13:43:38.610Z,69.26
2023-03-27T13:49:25.569Z,71.11
2023-03-27T13:52:52.589Z,69.79
2023-03-27T13:59:17.574Z,72.10
2023-03-27T14:01:59.669Z,70.45
2023-03-27T14:05:01.365Z,69.67
2023-03-27T14:08:03.055Z,70.32
2023-03-27T14:11:18.651Z,70.26
2023-03-27T14:13:58.517Z,66.82
2023-03-27T14:16:48.132Z,67.51
2023-03-27T14:19:22.565Z,65.98
2023-03-27T14:22:01.217Z,67.01
2023-03-27T14:24:35.508Z,66.97
2023-03-27T14:27:16.687Z,67.93
2023-03-27T14:29:45.124Z,67.59
2023-03-27T14:35:41.486Z,67.97
2023-03-27T14:38:26.179Z,69.50
2023-03-27T14:40:59.738Z,69.23
2023-03-27T14:43:58.975Z,68.31
2023-03-27T14:47:00.893Z,68.90
2023-03-27T14:49:35.860Z,68.96
2023-03-27T14:52:07.855Z,71.28
2023-03-27T14:55:01.494Z,71.73
2023-03-27T14:57:36.383Z,71.75
2023-03-27T15:00:07.868Z,73.18
2023-03-27T15:02:45.335Z,72.48
2023-03-27T15:05:16.320Z,72.80
2023-03-27T15:07:49.376Z,72.71
2023-03-27T15:10:33.565Z,71.27
2023-03-27T15:13:32.781Z,72.12
2023-03-27T15:16:00.978Z,71.36
2023-03-27T15:18:58.678Z,72.77
2023-03-27T15:21:45.004Z,73.91
2023-03-27T15:27:26.335Z,72.36
2023-03-27T15:30:07.303Z,71.09
2023-03-27T15:32:44.542Z,68.58
2023-03-27T15:35:21.251Z,67.47
2023-03-27T15:37:48.577Z,64.67
2023-03-27T15:40:36.574Z,63.60
2023-03-27T15:43:04.657Z,65.47
2023-03-27T15:45:39.986Z,64.31
2023-03-27T15:48:18.162Z,62.58
2023-03-27T15:51:08.829Z,64.10
2023-03-27T15:53:45.199Z,66.87
2023-03-27T15:56:40.305Z,64.91
2023-03-27T15:59:17.871Z,64.44
2023-03-27T16:01:55.328Z,64.15
2023-03-27T16:04:38.114Z,66.19
2023-03-27T16:07:46.471Z,63.68
2023-03-27T16:10:33.826Z,63.82
2023-03-27T16:13:04.024Z,63.93
2023-03-27T16:16:02.483Z,65.11
2023-03-27T16:18:35.720Z,63.91
2023-03-27T16:21:07.040Z,66.36
2023-03-27T16:23:37.288Z,65.94
2023-03-27T16:29:10.069Z,66.69
2023-03-27T16:31:43.386Z,65.24
2023-03-27T16:34:12.759Z,66.79
2023-03-27T16:36:56.314Z,65.91
2023-03-27T16:39:24.344Z,67.61
2023-03-27T16:45:10.619Z,74.16
2023-03-27T16:47:43.404Z,75.17
2023-03-27T16:50:17.779Z,74.54
2023-03-27T16:52:51.464Z,75.14
2023-03-27T16:55:35.004Z,76.01
2023-03-27T16:58:50.458Z,77.18
2023-03-27T17:01:18.463Z,77.95
2023-03-27T17:03:46.452Z,78.90
2023-03-27T17:06:15.234Z,79.02
2023-03-27T17:08:49.228Z,77.83
2023-03-27T17:11:26.105Z,78.21
2023-03-27T17:13:58.241Z,78.73
2023-03-27T17:16:51.332Z,78.34
2023-03-27T17:19:24.323Z,77.30
2023-03-27T17:21:57.276Z,77.04
2023-03-27T17:24:30.283Z,77.59
2023-03-27T17:29:51.418Z,77.65
2023-03-27T17:32:49.371Z,78.08
2023-03-27T17:35:16.605Z,77.69
2023-03-27T17:37:44.254Z,78.30
2023-03-27T17:40:12.553Z,78.15
2023-03-27T17:42:40.404Z,78.51
2023-03-27T17:45:08.635Z,79.18
2023-03-27T17:47:36.538Z,78.35
2023-03-27T17:50:10.166Z,78.32
2023-03-27T17:52:43.277Z,78.90
2023-03-27T17:55:10.412Z,80.14
2023-03-27T17:57:38.573Z,79.90
2023-03-27T18:00:07.263Z,80.89
2023-03-27T18:02:42.963Z,81.22
2023-03-27T18:05:10.360Z,81.96
2023-03-27T18:07:38.329Z,81.32
2023-03-27T18:10:08.466Z,81.88
2023-03-27T18:12:41.350Z,81.26
2023-03-27T18:15:13.981Z,81.64
2023-03-27T18:17:42.286Z,81.84
2023-03-27T18:20:10.641Z,81.73
2023-03-27T18:22:39.105Z,81.65
2023-03-27T18:25:08.651Z,81.25
2023-03-27T18:27:45.076Z,81.27
2023-03-27T18:30:18.848Z,82.69
2023-03-27T18:32:46.467Z,82.87
2023-03-27T18:35:19.521Z,82.58
2023-03-27T18:37:46.898Z,82.94
2023-03-27T18:40:41.335Z,83.44
2023-03-27T18:43:10.220Z,82.89
2023-03-27T18:45:38.331Z,82.72
2023-03-27T18:48:06.475Z,83.41
2023-03-27T18:51:01.418Z,82.91
2023-03-27T18:53:29.295Z,82.86
2023-03-27T18:55:58.577Z,82.95
2023-03-27T18:58:33.182Z,83.14
2023-03-27T19:01:00.772Z,82.84
2023-03-27T19:03:35.257Z,82.83
2023-03-27T19:06:04.714Z,82.78
2023-03-27T19:08:33.466Z,82.85
2023-03-27T19:11:02.347Z,82.89
2023-03-27T19:17:06.327Z,83.04
2023-03-27T19:19:42.392Z,83.08
2023-03-27T19:22:30.444Z,83.98
2023-03-27T19:25:06.901Z,83.08
2023-03-27T19:27:39.193Z,83.22
2023-03-27T19:30:11.331Z,83.54
2023-03-27T19:32:39.354Z,82.80
2023-03-27T19:35:12.322Z,83.02
2023-03-27T19:37:40.654Z,83.28
2023-03-27T19:40:16.023Z,82.60
2023-03-27T19:42:48.781Z,82.86
2023-03-27T19:45:17.310Z,82.23
2023-03-27T19:47:49.036Z,82.43
2023-03-27T19:50:23.622Z,81.84
2023-03-27T19:53:10.952Z,81.25
2023-03-27T19:55:39.020Z,82.93
2023-03-27T19:58:13.021Z,82.17
2023-03-27T20:00:40.774Z,82.59
2023-03-27T20:03:10.687Z,82.73
2023-03-27T20:05:39.990Z,82.43
2023-03-27T20:08:08.573Z,83.35
2023-03-27T20:10:36.574Z,82.99
2023-03-27T20:13:04.421Z,82.96
2023-03-27T20:16:00.071Z,83.48
2023-03-27T20:18:32.683Z,82.54
2023-03-27T20:21:02.122Z,82.39
2023-03-27T20:23:41.984Z,83.24
2023-03-27T20:26:22.350Z,83.45
2023-03-27T20:28:56.452Z,82.54
2023-03-27T20:31:24.403Z,82.09
2023-03-27T20:33:54.453Z,82.73
2023-03-27T20:36:24.368Z,82.66
2023-03-27T20:38:56.393Z,81.91
2023-03-27T20:41:27.178Z,82.50
2023-03-27T20:43:54.266Z,81.99
2023-03-27T20:46:30.491Z,82.93
2023-03-27T20:48:58.312Z,82.58
2023-03-27T20:51:26.371Z,83.24
2023-03-27T20:53:56.033Z,80.92
2023-03-27T20:56:29.690Z,81.19
2023-03-27T20:58:58.448Z,80.97
2023-03-27T21:01:27.474Z,80.58
2023-03-27T21:04:02.109Z,80.26
2023-03-27T21:06:35.342Z,81.24
2023-03-27T21:09:02.593Z,80.15
2023-03-27T21:11:34.507Z,80.49
2023-03-27T21:14:02.432Z,79.77
2023-03-27T21:16:30.378Z,79.24
2023-03-27T21:19:03.781Z,79.73
2023-03-27T21:21:41.717Z,79.67
2023-03-27T21:24:10.840Z,79.74
2023-03-27T21:26:38.497Z,79.59
2023-03-27T21:29:06.578Z,79.98
2023-03-27T21:31:34.288Z,79.86
2023-03-27T21:34:06.267Z,80.19
2023-03-27T21:36:39.981Z,80.70
2023-03-27T21:39:10.525Z,80.63
2023-03-27T21:41:38.644Z,81.14
2023-03-27T21:44:06.334Z,80.56
2023-03-27T21:46:34.469Z,80.67
2023-03-27T21:49:04.601Z,80.85
2023-03-27T21:51:32.450Z,80.86
2023-03-27T21:54:00.428Z,81.32
2023-03-27T21:56:32.981Z,81.39
2023-03-27T21:59:00.597Z,81.80
2023-03-27T22:01:33.435Z,81.53
2023-03-27T22:04:07.565Z,81.31
2023-03-27T22:09:32.997Z,81.50
2023-03-27T22:12:07.149Z,82.57
2023-03-27T22:14:34.763Z,83.51
2023-03-27T22:17:06.365Z,82.34
2023-03-27T22:19:34.799Z,83.07
2023-03-27T22:22:08.558Z,83.03
2023-03-27T22:24:36.439Z,83.00
2023-03-27T22:27:30.194Z,83.42
2023-03-27T22:32:50.295Z,82.22
2023-03-27T22:35:23.450Z,82.80
2023-03-27T22:37:55.320Z,81.71
2023-03-27T22:43:22.387Z,81.93
2023-03-27T22:45:52.389Z,82.39
2023-03-27T22:48:20.456Z,82.80
2023-03-27T22:50:56.619Z,83.04
2023-03-27T22:53:27.391Z,82.12
2023-03-27T22:56:00.884Z,81.98
2023-03-27T22:58:28.915Z,82.24
2023-03-27T23:00:56.516Z,81.38
2023-03-27T23:03:26.283Z,81.70
2023-03-27T23:05:55.260Z,81.58
2023-03-27T23:08:24.412Z,81.44
2023-03-27T23:11:04.593Z,81.69
2023-03-27T23:13:36.533Z,81.28
2023-03-27T23:18:56.248Z,82.03
2023-03-27T23:21:24.279Z,81.82
2023-03-27T23:23:52.289Z,82.14
2023-03-27T23:26:24.245Z,81.99
2023-03-27T23:28:52.248Z,81.59
2023-03-27T23:31:20.661Z,81.51
2023-03-27T23:33:50.660Z,81.50
2023-03-27T23:36:21.684Z,81.64
2023-03-27T23:38:48.856Z,82.07
2023-03-27T23:41:16.601Z,82.51
2023-03-27T23:43:45.011Z,82.58
2023-03-27T23:46:12.935Z,81.71
2023-03-27T23:48:42.537Z,82.91
2023-03-27T23:51:11.780Z,82.40
2023-03-27T23:53:40.468Z,82.89
2023-03-27T23:56:11.732Z,83.01
2023-03-27T23:58:40.410Z,83.81
